Eugene, MO

12:26 AM CDT on March 28, 2015 (GMT -0500)
Scrivner Rd | | Change Station
CLOSE
Current Station
Personal Weather Station
Location: Russellville, MO
Elevation: 856 ft
Nearby Weather Stations

Elev 856 ft 38.45 °N, 92.36 °W | Updated 13 seconds ago

Overcast
Overcast
36.1 °F
Feels Like 36 °F
N
2.2
Wind Variable Wind from South
Gusts 2.2 mph

Today
High -- | Low -- °F
--% Chance of Precip.
Yesterday
High -- | Low -- °F
Precip. -- in
7:00 AM 7:28 PM
First Quarter, 59% visible
Pressure 30.17 in
Visibility 10.0 miles
Clouds Overcast 11000 ft
Windchill 36 °F
Dew Point 23 °F
Humidity 58%
Rainfall 0.00 in
Snow Depth Not available.
UV 0.0 out of 12
Pollen 8.00 out of 12
Air Quality Not available.
Flu Activity Not available.
METAR KJEF 280453Z AUTO 00000KT 10SM OVC110 03/M04 A3018 RMK AO2 SLP215 T00281039

More Conditions Fewer Conditions

Pressure 30.17 in
Visibility 10.0 miles
Clouds Overcast 11000 ft
Windchill 36 °F
Dew Point 23 °F
Humidity 58%
Rainfall 0.00 in
Snow Depth Not available.
UV 0.0 out of 12
Pollen 8.00 out of 12
Air Quality Not available.
Flu Activity Not available.
METAR KJEF 280453Z AUTO 00000KT 10SM OVC110 03/M04 A3018 RMK AO2 SLP215 T00281039

More Conditions Fewer Conditions

10-Day Weather Forecast

Almanac

Astronomy

Mar. 28, 2015 Rise Set
Actual Time
Civil Twilight
Nautical Twilight
Astronomical Twilight
Moon
Length of Visible Light
Length of Day
Tomorrow will be .
, % of the Moon is Illuminated

Today's Extremes

State Highs State Lows

Community

WunderPhotos

Upload Photos

1,808,934 photos uploaded!

WunderBlogs® & News

Nearby

Air Quality

  Air Quality AQ Index Pollutant
Not available.

Snow Depth

Station Depth Elevation

Earthquake Activity

City Distance Mag. Time & Date
Minimum magnitude displayed is 2.5.

Coastal Water Temperatures

Place Temperature

Stations

Nearby Weather Stations

Station Location Temp. Windchill Dew Point Humidity Wind Precip. Elev Updated Type